Time;durP1;ratioP1;P1;durP2;ratioP2;P2;SDS_P1;SDS_P2;PMS_P1;PMS_P2;Temp;Humidity;BMP_temperature;BMP_pressure;BME280_temperature;BME280_humidity;BME280_pressure;Samples;Min_cycle;Max_cycle;Signal;HPM_P1;HPM_P2
2022/02/12 00:01:23;;;;;;;31.87;24.92;;;25.80;86.70;;;;;;1748814;81;21162;-83
2022/02/12 00:03:54;;;;;;;31.77;24.50;;;25.80;86.70;;;;;;1756100;81;21505;-83
2022/02/12 00:06:25;;;;;;;27.80;24.45;;;25.80;86.70;;;;;;1747615;81;21124;-83
2022/02/12 00:08:56;;;;;;;31.15;25.25;;;25.80;86.70;;;;;;1755265;81;21190;-82
2022/02/12 00:11:27;;;;;;;30.85;24.50;;;25.80;86.70;;;;;;1757292;81;21527;-83
2022/02/12 00:13:57;;;;;;;33.75;24.35;;;25.80;86.70;;;;;;1754094;81;21178;-84
2022/02/12 00:16:28;;;;;;;31.20;25.00;;;25.80;86.70;;;;;;1751808;81;21182;-83
2022/02/12 00:19:00;;;;;;;28.60;25.30;;;25.80;86.90;;;;;;1737729;81;21769;-84
2022/02/12 00:21:31;;;;;;;31.48;25.45;;;25.70;86.80;;;;;;1774845;81;21260;-83
2022/02/12 00:24:01;;;;;;;27.70;23.87;;;25.70;86.80;;;;;;1762923;81;21122;-82
2022/02/12 00:26:32;;;;;;;28.10;24.07;;;25.70;86.70;;;;;;1747250;81;21226;-82
2022/02/12 00:29:03;;;;;;;30.37;24.05;;;25.70;86.70;;;;;;1752125;81;21225;-84
2022/02/12 00:31:34;;;;;;;31.48;24.52;;;25.70;86.70;;;;;;1756646;81;21115;-83
2022/02/12 00:34:05;;;;;;;29.85;23.65;;;25.80;86.70;;;;;;1753433;81;21170;-83
2022/02/12 00:36:36;;;;;;;31.07;25.00;;;25.80;86.20;;;;;;1745857;81;21091;-83
2022/02/12 00:39:08;;;;;;;30.00;23.65;;;25.80;86.50;;;;;;1747811;81;21127;-82
2022/02/12 00:41:40;;;;;;;28.80;21.60;;;25.80;86.30;;;;;;1747328;81;21186;-85
2022/02/12 00:44:11;;;;;;;27.82;20.80;;;25.80;85.90;;;;;;1747210;81;21321;-83
2022/02/12 00:46:42;;;;;;;28.30;20.45;;;25.80;85.20;;;;;;1758041;81;21201;-83
2022/02/12 00:49:13;;;;;;;26.85;19.50;;;25.90;84.50;;;;;;1760513;81;21218;-82
2022/02/12 00:51:45;;;;;;;25.72;20.15;;;25.90;84.40;;;;;;1766729;81;21237;-83
2022/02/12 00:54:17;;;;;;;26.52;19.35;;;25.90;84.20;;;;;;1746789;81;21630;-83
2022/02/12 00:56:48;;;;;;;21.87;18.42;;;25.90;83.90;;;;;;1747414;81;21159;-82
2022/02/12 00:59:19;;;;;;;20.62;18.05;;;25.90;83.90;;;;;;1745074;81;21179;-84
2022/02/12 01:01:51;;;;;;;21.25;17.07;;;26.00;84.00;;;;;;1752169;81;21174;-83
2022/02/12 01:04:22;;;;;;;21.17;16.17;;;26.00;83.50;;;;;;1746288;81;21147;-84
2022/02/12 01:06:53;;;;;;;18.87;15.65;;;26.00;83.10;;;;;;1764821;81;21236;-83
2022/02/12 01:09:24;;;;;;;20.60;15.18;;;26.10;83.20;;;;;;1756830;81;21166;-82
2022/02/12 01:11:55;;;;;;;23.62;16.87;;;26.10;83.20;;;;;;1755478;81;21543;-85
2022/02/12 01:14:26;;;;;;;22.02;15.60;;;26.10;82.80;;;;;;1723592;82;21233;-82
2022/02/12 01:16:58;;;;;;;20.08;16.15;;;26.20;82.70;;;;;;1741779;81;21251;-82
2022/02/12 01:19:28;;;;;;;19.40;15.78;;;26.20;82.40;;;;;;1745682;81;21257;-82
2022/02/12 01:21:59;;;;;;;21.45;15.55;;;26.30;82.40;;;;;;1760474;81;21742;-82
2022/02/12 01:24:30;;;;;;;21.93;16.77;;;26.30;82.00;;;;;;1746935;81;21274;-83
2022/02/12 01:27:01;;;;;;;25.10;16.73;;;26.40;81.90;;;;;;1747865;81;21283;-82
2022/02/12 01:29:32;;;;;;;20.02;15.40;;;26.40;81.70;;;;;;1752584;81;21944;-82
2022/02/12 01:32:06;;;;;;;20.08;14.55;;;26.40;81.20;;;;;;1749201;81;21614;-82
2022/02/12 01:34:36;;;;;;;20.02;14.93;;;26.40;81.00;;;;;;1748912;81;21249;-82
2022/02/12 01:37:09;;;;;;;19.35;14.23;;;26.40;81.30;;;;;;1751630;81;21117;-82
2022/02/12 01:39:40;;;;;;;17.65;13.50;;;26.50;81.00;;;;;;1751528;81;21209;-83
2022/02/12 01:42:11;;;;;;;18.57;13.65;;;26.50;81.00;;;;;;1755425;81;21253;-83
2022/02/12 01:44:42;;;;;;;18.87;13.88;;;26.60;80.50;;;;;;1753069;81;21466;-83
2022/02/12 01:47:13;;;;;;;18.52;13.72;;;26.60;80.30;;;;;;1750694;81;21224;-84
2022/02/12 01:49:44;;;;;;;19.62;14.80;;;26.60;80.20;;;;;;1753619;81;21585;-82
2022/02/12 01:52:16;;;;;;;17.82;13.40;;;26.60;80.30;;;;;;1750084;81;21172;-83
2022/02/12 01:54:49;;;;;;;21.75;13.78;;;26.60;80.40;;;;;;1753714;81;21118;-83
2022/02/12 01:57:19;;;;;;;18.65;13.40;;;26.60;80.20;;;;;;1723453;82;21787;-83
2022/02/12 01:59:50;;;;;;;16.62;12.68;;;26.60;80.10;;;;;;1756370;81;21166;-82
2022/02/12 02:02:21;;;;;;;19.87;12.95;;;26.60;80.00;;;;;;1747186;82;21250;-83
2022/02/12 02:04:52;;;;;;;21.85;13.10;;;26.60;79.30;;;;;;1740513;82;21105;-83
2022/02/12 02:07:24;;;;;;;18.35;12.43;;;26.70;79.70;;;;;;1747025;82;21162;-84
2022/02/12 02:09:55;;;;;;;14.73;12.75;;;26.70;79.70;;;;;;1746621;82;21120;-85
2022/02/12 02:12:26;;;;;;;16.62;12.60;;;26.70;79.90;;;;;;1746900;82;21225;-84
2022/02/12 02:14:56;;;;;;;17.23;12.80;;;26.70;79.50;;;;;;1739843;82;21152;-84
2022/02/12 02:17:27;;;;;;;23.32;12.60;;;26.70;79.60;;;;;;1766979;81;21101;-84
2022/02/12 02:19:58;;;;;;;15.88;12.18;;;26.70;79.70;;;;;;1746952;82;21337;-83
2022/02/12 02:22:32;;;;;;;16.17;11.85;;;26.70;79.50;;;;;;1774873;81;21247;-83
2022/02/12 02:25:03;;;;;;;16.05;11.85;;;26.80;79.40;;;;;;1775809;81;21187;-83
2022/02/12 02:27:33;;;;;;;16.87;12.15;;;26.80;79.30;;;;;;1776787;81;21813;-84
2022/02/12 02:30:05;;;;;;;13.83;11.43;;;26.90;79.20;;;;;;1773988;79;22118;-84
2022/02/12 02:32:36;;;;;;;16.48;12.05;;;26.90;79.10;;;;;;1746282;82;21696;-82
2022/02/12 02:35:07;;;;;;;15.72;10.53;;;26.90;79.00;;;;;;1744648;82;21119;-82
2022/02/12 02:37:39;;;;;;;15.35;11.25;;;26.90;78.90;;;;;;1744340;82;21119;-82
2022/02/12 02:40:12;;;;;;;18.12;10.95;;;26.90;78.80;;;;;;1740102;82;22456;-82
2022/02/12 02:42:45;;;;;;;15.68;11.08;;;27.00;78.70;;;;;;1742303;82;21272;-83
2022/02/12 02:45:17;;;;;;;13.58;10.50;;;27.00;78.30;;;;;;1739531;82;21293;-82
2022/02/12 02:47:48;;;;;;;16.48;10.48;;;27.00;78.10;;;;;;1742946;82;21720;-85
2022/02/12 02:58:01;;;;;;;14.47;10.98;;;27.10;78.30;;;;;;1748079;81;21229;-85
2022/02/12 03:00:31;;;;;;;14.85;11.22;;;27.10;78.00;;;;;;1744554;82;21146;-84
2022/02/12 03:03:02;;;;;;;16.42;11.75;;;27.10;77.50;;;;;;1741915;81;22000;-86
2022/02/12 03:05:33;;;;;;;12.93;10.40;;;27.10;77.70;;;;;;1741204;82;21194;-84
2022/02/12 03:08:03;;;;;;;14.20;10.05;;;27.10;77.30;;;;;;1743483;81;21170;-85
2022/02/12 03:10:34;;;;;;;18.00;12.53;;;27.10;77.90;;;;;;1742564;82;21178;-84
2022/02/12 03:13:06;;;;;;;14.65;11.15;;;27.00;77.80;;;;;;1742366;82;21614;-84
2022/02/12 03:15:42;;;;;;;15.63;11.40;;;27.00;77.40;;;;;;1742516;82;21226;-84
2022/02/12 03:18:11;;;;;;;20.88;12.65;;;27.00;77.90;;;;;;1743059;81;21621;-83
2022/02/12 03:20:51;;;;;;;19.65;12.40;;;27.00;77.70;;;;;;1748339;81;21203;-84
2022/02/12 03:23:22;;;;;;;14.95;11.22;;;27.10;78.50;;;;;;1746859;82;21136;-84
2022/02/12 03:25:53;;;;;;;14.33;10.75;;;27.10;77.90;;;;;;1746463;82;21177;-84
2022/02/12 03:28:25;;;;;;;14.05;10.15;;;27.20;78.10;;;;;;1758572;81;21138;-84
2022/02/12 03:30:56;;;;;;;18.23;12.47;;;27.20;77.90;;;;;;1749164;81;21189;-84
2022/02/12 03:33:33;;;;;;;14.87;11.30;;;27.30;77.40;;;;;;1761358;81;21216;-84
2022/02/12 03:36:08;;;;;;;18.15;11.73;;;27.40;77.60;;;;;;1746125;82;21173;-85
2022/02/12 03:38:40;;;;;;;15.75;11.28;;;27.40;77.20;;;;;;1731852;81;21221;-85
2022/02/12 03:41:13;;;;;;;16.27;12.15;;;27.50;77.30;;;;;;1741918;82;21245;-82
2022/02/12 03:43:46;;;;;;;15.77;12.53;;;27.60;76.60;;;;;;1710659;82;21234;-85
2022/02/12 03:46:18;;;;;;;16.90;11.70;;;27.60;76.60;;;;;;1743364;82;21118;-84
2022/02/12 03:48:52;;;;;;;14.75;12.70;;;27.70;76.40;;;;;;1740932;81;21552;-85
2022/02/12 03:51:25;;;;;;;15.95;11.68;;;27.80;76.00;;;;;;1708199;82;21169;-85
2022/02/12 03:53:56;;;;;;;19.55;13.53;;;27.90;76.00;;;;;;1746176;82;21157;-85
2022/02/12 03:56:27;;;;;;;17.48;12.50;;;28.00;75.90;;;;;;1743082;82;21597;-85
2022/02/12 03:58:58;;;;;;;15.23;12.35;;;28.10;74.80;;;;;;1733882;82;21167;-85
2022/02/12 04:01:29;;;;;;;17.50;13.98;;;28.20;75.00;;;;;;1742159;82;21182;-86
2022/02/12 04:04:01;;;;;;;18.37;13.53;;;28.20;74.60;;;;;;1718838;82;21154;-85
2022/02/12 04:06:31;;;;;;;20.15;13.35;;;28.20;75.00;;;;;;1731987;82;21159;-84
2022/02/12 04:09:02;;;;;;;16.45;13.38;;;28.20;74.60;;;;;;1738627;82;21247;-87
2022/02/12 04:11:32;;;;;;;21.27;14.40;;;28.20;74.60;;;;;;1737835;82;21150;-85
2022/02/12 04:14:03;;;;;;;18.12;13.30;;;28.20;74.80;;;;;;1736985;82;21182;-86
2022/02/12 04:16:34;;;;;;;18.27;12.93;;;28.20;74.50;;;;;;1741814;82;21697;-85
2022/02/12 04:19:05;;;;;;;18.95;13.90;;;28.20;74.90;;;;;;1742787;82;21146;-85
2022/02/12 04:21:35;;;;;;;17.80;13.68;;;28.20;74.30;;;;;;1739398;82;21118;-85
2022/02/12 04:24:06;;;;;;;16.90;12.68;;;28.30;74.30;;;;;;1741646;82;21264;-86
2022/02/12 04:26:37;;;;;;;16.25;13.20;;;28.30;74.30;;;;;;1735690;82;22197;-85
2022/02/12 04:29:08;;;;;;;15.35;13.38;;;28.30;73.90;;;;;;1729494;82;21213;-85
2022/02/12 04:31:38;;;;;;;17.15;12.95;;;28.30;73.40;;;;;;1738382;82;21122;-85
2022/02/12 04:34:09;;;;;;;21.00;14.23;;;28.20;74.30;;;;;;1741206;81;21183;-85
2022/02/12 04:36:40;;;;;;;17.60;13.58;;;28.20;73.50;;;;;;1742113;81;21217;-85
2022/02/12 04:39:11;;;;;;;16.42;12.47;;;28.30;74.00;;;;;;1727290;82;21216;-86
2022/02/12 04:41:41;;;;;;;15.80;12.95;;;28.40;73.60;;;;;;1734358;82;21137;-84
2022/02/12 04:44:15;;;;;;;20.35;11.93;;;28.50;73.80;;;;;;1739840;82;21288;-84
2022/02/12 04:46:46;;;;;;;15.85;12.82;;;28.60;73.60;;;;;;1764123;81;21163;-86
2022/02/12 04:49:22;;;;;;;14.13;12.25;;;28.70;73.00;;;;;;1761105;81;21112;-86
2022/02/12 04:51:49;;;;;;;14.70;12.47;;;28.80;73.00;;;;;;1716130;83;21163;-85
2022/02/12 04:54:20;;;;;;;16.27;12.15;;;29.00;72.60;;;;;;1744275;81;21668;-85
2022/02/12 04:56:50;;;;;;;18.50;12.75;;;29.10;71.90;;;;;;1716673;83;21829;-85
2022/02/12 04:59:21;;;;;;;15.83;11.65;;;29.30;71.50;;;;;;1741737;82;21240;-85
2022/02/12 05:01:52;;;;;;;14.38;11.80;;;29.40;70.50;;;;;;1736789;82;21220;-85
2022/02/12 05:04:23;;;;;;;18.48;12.93;;;29.40;70.60;;;;;;1745611;82;21220;-85
2022/02/12 05:06:54;;;;;;;17.25;11.75;;;29.50;71.40;;;;;;1738434;82;21237;-87
2022/02/12 05:09:25;;;;;;;22.37;13.80;;;29.60;71.90;;;;;;1747206;81;21146;-85
2022/02/12 05:11:55;;;;;;;14.55;12.37;;;29.80;70.90;;;;;;1742867;82;21157;-86
2022/02/12 05:14:29;;;;;;;16.20;11.90;;;29.80;69.20;;;;;;1719065;83;21153;-85
2022/02/12 05:16:59;;;;;;;15.68;12.20;;;29.90;69.20;;;;;;1718462;82;21850;-86
2022/02/12 05:19:31;;;;;;;14.68;11.78;;;30.00;68.80;;;;;;1698454;83;21189;-86
2022/02/12 05:22:01;;;;;;;13.50;11.12;;;29.90;69.20;;;;;;1714096;83;21129;-84
2022/02/12 05:24:33;;;;;;;15.95;12.58;;;30.00;68.20;;;;;;1740635;82;21260;-84
2022/02/12 05:27:04;;;;;;;15.83;12.82;;;30.10;69.10;;;;;;1772491;81;21677;-86
2022/02/12 05:29:34;;;;;;;14.87;11.78;;;30.20;68.50;;;;;;1765857;81;21226;-86
2022/02/12 05:32:06;;;;;;;16.57;12.53;;;30.20;68.60;;;;;;1769545;81;21810;-85
2022/02/12 05:34:37;;;;;;;19.52;12.85;;;30.30;69.20;;;;;;1755316;81;21199;-85
2022/02/12 05:37:07;;;;;;;17.30;12.33;;;30.20;67.90;;;;;;1773863;81;21215;-86
2022/02/12 05:39:38;;;;;;;17.00;12.33;;;30.30;68.50;;;;;;1751267;81;21801;-86
2022/02/12 05:42:09;;;;;;;15.13;12.40;;;30.20;67.40;;;;;;1746582;81;21144;-86
2022/02/12 05:44:40;;;;;;;16.52;12.20;;;30.20;67.60;;;;;;1761791;81;21211;-86
2022/02/12 05:47:11;;;;;;;14.53;11.70;;;30.20;67.70;;;;;;1762775;81;21195;-86
2022/02/12 05:49:42;;;;;;;15.95;12.03;;;30.20;67.70;;;;;;1763285;81;21118;-86
2022/02/12 05:52:13;;;;;;;17.07;13.00;;;30.20;67.80;;;;;;1774740;81;21181;-86
2022/02/12 05:54:43;;;;;;;19.87;12.98;;;30.30;67.40;;;;;;1774123;81;21113;-85
2022/02/12 05:57:14;;;;;;;15.80;12.13;;;30.30;67.20;;;;;;1773407;79;21168;-86
2022/02/12 05:59:45;;;;;;;14.65;11.60;;;30.30;67.50;;;;;;1773663;79;21179;-85
2022/02/12 06:02:16;;;;;;;65.08;52.53;;;30.30;66.70;;;;;;1768834;81;21226;-85
2022/02/12 06:04:47;;;;;;;27.85;20.88;;;30.30;66.20;;;;;;1773671;81;21115;-85
2022/02/12 06:07:18;;;;;;;15.83;13.20;;;30.30;67.90;;;;;;1767034;81;21214;-85
2022/02/12 06:09:50;;;;;;;17.50;13.75;;;30.30;66.90;;;;;;1772344;80;21193;-86
2022/02/12 06:12:25;;;;;;;14.55;11.93;;;30.30;67.10;;;;;;1766212;81;21152;-84
2022/02/12 06:14:54;;;;;;;17.37;13.30;;;30.30;67.30;;;;;;1759425;81;21689;-84
2022/02/12 06:17:25;;;;;;;18.65;14.30;;;30.20;67.00;;;;;;1766212;81;21176;-86
2022/02/12 06:19:57;;;;;;;16.95;12.15;;;30.30;66.60;;;;;;1771885;80;21227;-85
2022/02/12 06:22:28;;;;;;;17.50;12.80;;;30.30;66.10;;;;;;1774242;80;21223;-85
2022/02/12 06:25:00;;;;;;;20.82;12.60;;;30.40;66.60;;;;;;1760598;80;21157;-85
2022/02/12 06:27:31;;;;;;;15.38;12.00;;;30.50;66.10;;;;;;1759270;81;21192;-85
2022/02/12 06:30:02;;;;;;;16.48;12.63;;;30.50;66.40;;;;;;1758891;81;21564;-86
2022/02/12 06:32:33;;;;;;;17.65;12.37;;;30.60;66.50;;;;;;1769164;80;21200;-84
2022/02/12 06:35:07;;;;;;;15.28;12.68;;;30.70;66.50;;;;;;1755018;81;21857;-85
2022/02/12 06:37:37;;;;;;;18.10;12.05;;;30.70;65.50;;;;;;1760073;81;21144;-85
2022/02/12 06:40:09;;;;;;;16.80;12.37;;;30.90;66.00;;;;;;1757646;80;21158;-85
2022/02/12 06:42:40;;;;;;;18.32;13.08;;;31.00;65.00;;;;;;1758541;81;21213;-86
2022/02/12 06:45:12;;;;;;;16.65;12.75;;;31.00;64.80;;;;;;1761361;80;21493;-85
2022/02/12 06:47:49;;;;;;;15.13;11.20;;;31.20;64.10;;;;;;1756405;80;21117;-86
2022/02/12 06:50:16;;;;;;;17.55;12.75;;;31.20;63.90;;;;;;1763454;80;21109;-85
2022/02/12 06:52:47;;;;;;;16.27;11.93;;;31.20;64.70;;;;;;1758643;80;21226;-86
2022/02/12 06:55:18;;;;;;;15.95;11.85;;;31.30;64.50;;;;;;1768586;81;21203;-85
2022/02/12 06:57:51;;;;;;;17.00;12.75;;;31.40;63.70;;;;;;1758110;80;21647;-86
2022/02/12 07:00:22;;;;;;;13.75;12.23;;;31.40;63.40;;;;;;1759935;80;21175;-86
2022/02/12 07:02:52;;;;;;;18.17;12.90;;;31.50;63.90;;;;;;1761447;80;21703;-87
2022/02/12 07:05:23;;;;;;;16.15;12.78;;;31.50;63.10;;;;;;1755683;80;21199;-85
2022/02/12 07:07:56;;;;;;;19.80;13.00;;;31.50;63.20;;;;;;1765795;81;21654;-85
2022/02/12 07:10:29;;;;;;;15.78;11.85;;;31.50;63.50;;;;;;1766092;81;21217;-83
2022/02/12 07:12:59;;;;;;;19.65;13.55;;;31.50;64.40;;;;;;1762607;80;21142;-84
2022/02/12 07:15:36;;;;;;;19.57;13.15;;;31.50;63.20;;;;;;1762349;80;21303;-85
2022/02/12 07:18:17;;;;;;;23.42;13.80;;;31.50;63.70;;;;;;1750709;80;21717;-84
2022/02/12 07:20:47;;;;;;;22.45;13.10;;;31.50;63.20;;;;;;1756747;80;21289;-85
2022/02/12 07:23:18;;;;;;;16.60;13.20;;;31.60;62.90;;;;;;1762155;80;21222;-84
2022/02/12 07:25:49;;;;;;;15.90;12.35;;;31.60;61.90;;;;;;1741224;81;21117;-85
2022/02/12 07:28:21;;;;;;;17.17;12.40;;;31.80;62.20;;;;;;1737671;82;21267;-85
2022/02/12 07:30:52;;;;;;;16.77;12.15;;;31.80;61.90;;;;;;1745804;81;21240;-83
2022/02/12 07:33:27;;;;;;;17.05;12.07;;;31.80;59.80;;;;;;1712216;82;21168;-83
2022/02/12 07:35:56;;;;;;;17.55;12.47;;;31.80;61.30;;;;;;1743767;81;21220;-84
2022/02/12 07:38:27;;;;;;;14.78;12.73;;;31.80;59.30;;;;;;1719306;82;21797;-85
2022/02/12 07:40:57;;;;;;;17.32;12.43;;;31.80;59.90;;;;;;1750828;81;21643;-84
2022/02/12 07:43:28;;;;;;;14.33;12.03;;;31.70;59.30;;;;;;1747669;81;21648;-85
2022/02/12 07:46:01;;;;;;;16.40;12.43;;;31.70;59.60;;;;;;1719039;82;21705;-84
2022/02/12 07:48:32;;;;;;;15.58;13.25;;;31.70;59.20;;;;;;1744534;82;21213;-85
2022/02/12 07:51:03;;;;;;;17.80;12.65;;;31.70;58.40;;;;;;1713533;83;21141;-85
2022/02/12 07:53:34;;;;;;;17.23;12.90;;;31.70;58.20;;;;;;1746605;81;21223;-84
2022/02/12 07:56:05;;;;;;;16.95;12.78;;;31.60;58.10;;;;;;1754812;80;21590;-83
2022/02/12 07:58:38;;;;;;;18.52;12.90;;;31.60;57.60;;;;;;1730933;81;21164;-84
2022/02/12 08:01:08;;;;;;;16.97;13.22;;;31.60;58.20;;;;;;1749339;81;21702;-84
2022/02/12 08:03:39;;;;;;;18.90;12.98;;;31.70;58.50;;;;;;1747213;82;21166;-83
2022/02/12 08:07:27;;;;;;;19.40;13.22;;;31.70;58.50;;;;;;1748212;81;21237;-84
2022/02/12 08:08:45;;;;;;;15.40;13.32;;;31.70;59.00;;;;;;1731079;82;21191;-84
2022/02/12 08:11:25;;;;;;;18.32;13.50;;;31.70;59.60;;;;;;1750780;81;21296;-85
2022/02/12 08:13:46;;;;;;;18.48;14.55;;;31.80;58.50;;;;;;1719272;82;21181;-85
2022/02/12 08:16:17;;;;;;;17.12;13.68;;;31.80;59.90;;;;;;1743208;81;21181;-85
2022/02/12 08:18:48;;;;;;;14.30;12.85;;;31.80;59.50;;;;;;1757055;80;21163;-85
2022/02/12 08:21:19;;;;;;;16.67;13.60;;;31.80;58.70;;;;;;1747444;81;21182;-84
2022/02/12 08:23:50;;;;;;;17.40;15.32;;;31.80;58.60;;;;;;1753361;81;21757;-85
2022/02/12 08:26:21;;;;;;;21.48;13.90;;;31.80;58.60;;;;;;1747572;80;21661;-84
2022/02/12 08:28:52;;;;;;;15.25;13.48;;;31.80;58.90;;;;;;1716820;82;21233;-84
2022/02/12 08:31:23;;;;;;;16.37;13.88;;;31.80;58.80;;;;;;1751744;80;21292;-85
2022/02/12 08:33:54;;;;;;;17.67;14.15;;;31.80;58.80;;;;;;1746380;81;21185;-84
2022/02/12 08:36:26;;;;;;;15.38;12.68;;;31.80;58.60;;;;;;1750125;81;21205;-84
2022/02/12 08:38:58;;;;;;;21.90;14.18;;;31.90;59.00;;;;;;1747408;81;21527;-84
2022/02/12 08:41:28;;;;;;;19.52;14.10;;;31.90;59.20;;;;;;1751679;81;21167;-84
2022/02/12 08:43:59;;;;;;;17.73;13.40;;;31.90;59.20;;;;;;1731094;82;21175;-84
2022/02/12 08:46:30;;;;;;;20.92;15.18;;;32.00;59.70;;;;;;1746839;82;21249;-84
2022/02/12 08:49:00;;;;;;;17.20;13.98;;;32.00;59.20;;;;;;1745312;81;21178;-85
2022/02/12 08:51:31;;;;;;;16.82;13.80;;;32.00;60.40;;;;;;1746792;81;21722;-84
2022/02/12 08:54:02;;;;;;;16.75;13.53;;;32.00;60.00;;;;;;1748462;81;21704;-84
2022/02/12 08:56:35;;;;;;;17.90;13.60;;;31.90;59.30;;;;;;1746152;81;21241;-84
2022/02/12 08:59:07;;;;;;;19.32;14.40;;;31.90;59.40;;;;;;1744270;81;21211;-84
2022/02/12 09:01:40;;;;;;;18.70;13.70;;;31.80;60.60;;;;;;1744390;82;21151;-84
2022/02/12 09:04:12;;;;;;;21.60;14.00;;;31.80;60.00;;;;;;1745654;82;21679;-84
2022/02/12 09:06:46;;;;;;;15.95;13.85;;;31.70;59.60;;;;;;1744071;82;21143;-84
2022/02/12 09:09:17;;;;;;;19.87;14.73;;;31.70;60.10;;;;;;1746563;81;22007;-84
2022/02/12 09:11:48;;;;;;;19.00;14.65;;;31.60;60.00;;;;;;1734565;82;21642;-83
2022/02/12 09:14:19;;;;;;;17.98;14.45;;;31.70;60.60;;;;;;1747291;81;21151;-84
2022/02/12 09:16:50;;;;;;;16.17;13.90;;;31.60;60.30;;;;;;1745843;81;21186;-83
2022/02/12 09:19:20;;;;;;;20.15;14.18;;;31.60;60.40;;;;;;1746642;82;21705;-86
2022/02/12 09:21:51;;;;;;;19.50;14.15;;;31.60;60.20;;;;;;1759837;81;21661;-86
2022/02/12 09:24:23;;;;;;;16.60;13.95;;;31.50;59.80;;;;;;1740969;81;21682;-84
2022/02/12 09:26:54;;;;;;;20.85;14.80;;;31.60;59.80;;;;;;1742558;80;21250;-86
2022/02/12 09:29:25;;;;;;;20.15;14.85;;;31.50;60.20;;;;;;1746012;81;21210;-85
2022/02/12 09:31:55;;;;;;;19.77;15.23;;;31.60;60.30;;;;;;1740289;82;21166;-85
2022/02/12 09:34:27;;;;;;;20.37;14.83;;;31.60;60.30;;;;;;1738411;82;21319;-84
2022/02/12 09:36:58;;;;;;;19.37;13.62;;;31.60;60.30;;;;;;1736660;82;21288;-84
2022/02/12 09:39:29;;;;;;;17.27;14.35;;;31.60;60.60;;;;;;1748600;81;21261;-86
2022/02/12 09:42:00;;;;;;;20.97;15.18;;;31.50;61.00;;;;;;1753893;81;21132;-87
2022/02/12 09:44:31;;;;;;;19.42;14.70;;;31.50;61.40;;;;;;1749435;81;21184;-85
2022/02/12 09:47:04;;;;;;;18.65;14.50;;;31.50;61.60;;;;;;1745002;82;21148;-83
2022/02/12 09:49:36;;;;;;;19.57;15.43;;;31.50;61.60;;;;;;1741547;82;21178;-84
2022/02/12 09:52:09;;;;;;;19.05;14.63;;;31.50;61.30;;;;;;1747173;81;21658;-84
2022/02/12 09:54:40;;;;;;;16.90;14.47;;;31.50;61.40;;;;;;1733476;82;21252;-84
2022/02/12 09:57:11;;;;;;;20.45;14.90;;;31.50;61.40;;;;;;1740672;82;21207;-84
2022/02/12 09:59:41;;;;;;;19.45;14.40;;;31.40;61.00;;;;;;1747444;81;21231;-84
2022/02/12 10:02:15;;;;;;;17.92;14.93;;;31.40;60.80;;;;;;1746286;82;21665;-86
2022/02/12 10:04:45;;;;;;;19.30;15.38;;;31.30;60.90;;;;;;1746602;82;21668;-84
2022/02/12 10:07:19;;;;;;;18.32;15.08;;;31.30;61.30;;;;;;1734814;82;21198;-84
2022/02/12 10:09:51;;;;;;;18.00;15.18;;;31.30;62.50;;;;;;1745147;82;21232;-85
2022/02/12 10:12:23;;;;;;;20.27;15.95;;;31.20;61.70;;;;;;1745778;80;21166;-85
2022/02/12 10:14:54;;;;;;;22.05;15.38;;;31.20;62.00;;;;;;1768707;80;21677;-84
2022/02/12 10:17:24;;;;;;;20.27;15.75;;;31.20;62.30;;;;;;1755562;81;21150;-85
2022/02/12 10:19:55;;;;;;;19.60;15.93;;;31.20;62.40;;;;;;1750724;82;21166;-84
2022/02/12 10:22:26;;;;;;;16.12;14.40;;;31.20;61.60;;;;;;1725557;82;21212;-84
2022/02/12 10:25:04;;;;;;;22.48;15.40;;;31.10;62.10;;;;;;1748719;80;22170;-84
2022/02/12 10:27:36;;;;;;;18.92;14.87;;;31.20;62.50;;;;;;1747126;80;21281;-84
2022/02/12 10:30:05;;;;;;;21.42;16.20;;;31.10;62.90;;;;;;1732310;81;21289;-83
2022/02/12 10:32:38;;;;;;;18.42;15.45;;;31.10;63.80;;;;;;1738418;82;21251;-85
2022/02/12 10:35:10;;;;;;;19.00;15.75;;;31.10;64.30;;;;;;1746759;81;21272;-84
2022/02/12 10:37:45;;;;;;;20.35;15.93;;;31.00;64.60;;;;;;1746650;81;21143;-84
2022/02/12 10:40:15;;;;;;;23.50;15.85;;;31.00;65.00;;;;;;1747935;81;21993;-86
2022/02/12 10:42:47;;;;;;;24.77;15.58;;;30.90;65.30;;;;;;1750022;81;21142;-85
2022/02/12 10:45:19;;;;;;;20.82;16.07;;;30.90;65.60;;;;;;1754933;81;21161;-84
2022/02/12 10:47:50;;;;;;;24.15;16.67;;;30.80;65.60;;;;;;1757103;81;21106;-84
2022/02/12 10:50:24;;;;;;;23.42;16.90;;;30.80;66.00;;;;;;1736906;81;21119;-84
2022/02/12 10:52:57;;;;;;;23.62;19.90;;;30.70;65.90;;;;;;1751383;81;21272;-84
2022/02/12 10:55:31;;;;;;;26.75;19.15;;;30.70;66.20;;;;;;1746303;82;21243;-84
2022/02/12 10:58:05;;;;;;;30.08;19.67;;;30.70;66.30;;;;;;1750825;81;21673;-83
2022/02/12 11:00:39;;;;;;;22.90;17.87;;;30.70;66.40;;;;;;1745732;82;21147;-83
2022/02/12 11:03:16;;;;;;;22.13;17.87;;;30.60;66.40;;;;;;1738881;82;21728;-82
2022/02/12 11:05:48;;;;;;;22.98;17.35;;;30.60;66.60;;;;;;1746742;82;21569;-84
2022/02/12 11:08:17;;;;;;;26.97;18.10;;;30.60;66.70;;;;;;1748463;81;21293;-84
2022/02/12 11:10:48;;;;;;;22.45;17.25;;;30.50;66.90;;;;;;1746124;82;21279;-84
2022/02/12 11:13:21;;;;;;;22.98;17.50;;;30.50;67.00;;;;;;1731668;82;21297;-85
2022/02/12 11:15:52;;;;;;;24.60;18.20;;;30.40;67.00;;;;;;1745857;82;21218;-84
2022/02/12 11:19:11;;;;;;;22.42;19.55;;;30.40;67.20;;;;;;1747035;82;21236;-85
2022/02/12 11:21:29;;;;;;;26.55;20.05;;;30.40;67.40;;;;;;1719477;82;21157;-84
2022/02/12 11:23:59;;;;;;;23.60;19.80;;;30.40;67.50;;;;;;1747475;81;21613;-85
2022/02/12 11:26:32;;;;;;;25.08;17.70;;;30.40;67.60;;;;;;1733130;81;21174;-83
2022/02/12 11:29:05;;;;;;;24.05;19.15;;;30.30;67.60;;;;;;1743194;82;21167;-84
2022/02/12 11:31:37;;;;;;;22.32;19.17;;;30.40;67.70;;;;;;1739946;82;21169;-84
2022/02/12 11:34:11;;;;;;;28.10;19.92;;;30.30;68.10;;;;;;1746314;82;21178;-82
2022/02/12 11:36:45;;;;;;;23.57;19.07;;;30.30;68.10;;;;;;1743105;82;21982;-83
2022/02/12 11:39:21;;;;;;;26.77;21.30;;;30.30;69.30;;;;;;1746664;82;21150;-83
2022/02/12 11:41:51;;;;;;;25.88;21.27;;;30.20;68.90;;;;;;1752133;81;21137;-83
2022/02/12 11:44:24;;;;;;;25.85;20.50;;;30.30;69.30;;;;;;1756114;81;21643;-84
2022/02/12 11:46:57;;;;;;;28.12;21.57;;;30.20;69.30;;;;;;1744117;82;21193;-83
2022/02/12 11:49:30;;;;;;;29.98;22.02;;;30.20;70.10;;;;;;1745245;82;21487;-84
2022/02/12 11:52:03;;;;;;;28.87;22.85;;;30.20;70.10;;;;;;1745657;82;21209;-83
2022/02/12 11:54:37;;;;;;;28.67;22.55;;;30.10;70.80;;;;;;1754308;81;21615;-83
2022/02/12 11:57:08;;;;;;;30.15;21.93;;;30.10;70.40;;;;;;1745165;82;21203;-84
2022/02/12 11:59:39;;;;;;;25.00;21.50;;;30.10;71.10;;;;;;1746044;81;21159;-83
2022/02/12 12:02:09;;;;;;;27.67;21.55;;;30.00;71.50;;;;;;1745374;82;21225;-84
2022/02/12 12:04:41;;;;;;;29.90;22.27;;;30.10;71.50;;;;;;1740063;82;21246;-83
2022/02/12 12:07:14;;;;;;;28.15;22.37;;;30.00;71.80;;;;;;1746768;82;21695;-83
2022/02/12 12:09:47;;;;;;;26.48;21.15;;;30.00;72.00;;;;;;1745307;82;21158;-83
2022/02/12 12:12:20;;;;;;;28.92;22.58;;;30.00;72.20;;;;;;1745339;82;21662;-83
2022/02/12 12:14:54;;;;;;;30.10;23.27;;;29.90;72.80;;;;;;1746101;82;21095;-83
2022/02/12 12:17:27;;;;;;;28.42;22.48;;;29.90;72.80;;;;;;1752329;80;21329;-84
2022/02/12 12:19:58;;;;;;;28.05;23.18;;;29.90;72.80;;;;;;1747226;82;21162;-84
2022/02/12 12:22:31;;;;;;;28.47;22.25;;;29.80;73.10;;;;;;1746855;82;21217;-83
2022/02/12 12:25:03;;;;;;;27.32;22.30;;;29.80;73.40;;;;;;1745259;82;21210;-84
2022/02/12 12:27:35;;;;;;;38.13;23.52;;;29.80;74.00;;;;;;1718122;80;21182;-83
2022/02/12 12:32:41;;;;;;;29.92;24.32;;;29.70;74.30;;;;;;1745678;81;21230;-84
2022/02/12 12:35:12;;;;;;;26.65;23.07;;;29.70;74.40;;;;;;1732787;82;21194;-84
2022/02/12 12:37:45;;;;;;;27.35;22.45;;;29.60;74.70;;;;;;1746474;82;21228;-84
2022/02/12 12:40:17;;;;;;;28.35;23.70;;;29.60;75.90;;;;;;1744643;82;21254;-82
2022/02/12 12:42:50;;;;;;;29.82;23.38;;;29.60;74.70;;;;;;1749613;81;21146;-84
2022/02/12 12:45:20;;;;;;;27.05;22.62;;;29.60;75.60;;;;;;1750315;81;21159;-83
2022/02/12 12:47:53;;;;;;;28.47;22.55;;;29.60;74.70;;;;;;1746257;82;21163;-85
2022/02/12 12:50:24;;;;;;;33.10;23.83;;;29.60;74.90;;;;;;1746790;81;21250;-84
2022/02/12 12:52:57;;;;;;;30.97;23.38;;;29.50;74.60;;;;;;1746408;82;21258;-82
2022/02/12 12:55:28;;;;;;;30.10;23.55;;;29.50;74.40;;;;;;1746029;82;21195;-84
2022/02/12 12:58:01;;;;;;;31.48;25.02;;;29.50;74.50;;;;;;1747588;82;21225;-84
2022/02/12 13:00:32;;;;;;;29.42;22.52;;;29.50;74.90;;;;;;1747513;81;21223;-84